Time;durP1;ratioP1;P1;durP2;ratioP2;P2;SDS_P1;SDS_P2;PMS_P1;PMS_P2;Temp;Humidity;BMP_temperature;BMP_pressure;BME280_temperature;BME280_humidity;BME280_pressure;Samples;Min_cycle;Max_cycle;Signal;HPM_P1;HPM_P2
2022/10/27 00:00:42;;;;;;;17.10;9.67;;;;;;;16.38;63.62;100377.88;5074766;28;20216;-70
2022/10/27 00:03:10;;;;;;;13.87;9.03;;;;;;;16.35;62.52;100370.25;5074619;28;20614;-70
2022/10/27 00:05:37;;;;;;;16.33;10.33;;;;;;;16.38;62.50;100379.72;5074543;28;20737;-70
2022/10/27 00:08:08;;;;;;;24.10;10.90;;;;;;;16.25;63.20;100375.22;5074856;28;20266;-70
2022/10/27 00:10:35;;;;;;;15.47;9.80;;;;;;;16.30;63.33;100383.47;5074439;28;20184;-70
2022/10/27 00:13:02;;;;;;;14.67;9.20;;;;;;;16.34;63.68;100378.50;5075027;28;20199;-70
2022/10/27 00:15:28;;;;;;;15.27;9.83;;;;;;;16.42;62.78;100370.25;5074323;28;20208;-70
2022/10/27 00:17:55;;;;;;;15.50;9.57;;;;;;;16.47;63.05;100378.47;5074344;28;20248;-70
2022/10/27 00:20:22;;;;;;;15.33;9.50;;;;;;;16.49;62.80;100379.09;5074244;28;20675;-70
2022/10/27 00:22:48;;;;;;;18.00;9.43;;;;;;;16.34;63.01;100352.53;5074591;28;20195;-70
2022/10/27 00:25:17;;;;;;;17.97;10.13;;;;;;;16.48;63.17;100374.75;5074126;28;20193;-70
2022/10/27 00:27:43;;;;;;;19.77;9.43;;;;;;;16.44;63.56;100384.25;5074791;28;20249;-70
2022/10/27 00:30:11;;;;;;;15.50;10.17;;;;;;;16.43;63.15;100387.97;5074365;28;20198;-70
2022/10/27 00:32:37;;;;;;;14.37;9.17;;;;;;;16.44;64.35;100389.63;5074418;28;20204;-70
2022/10/27 00:35:05;;;;;;;19.57;10.60;;;;;;;16.43;64.08;100388.81;5073861;28;20192;-70
2022/10/27 00:37:32;;;;;;;17.73;9.90;;;;;;;16.44;63.78;100390.47;5074253;28;20538;-70
2022/10/27 00:39:58;;;;;;;14.90;10.80;;;;;;;16.43;62.72;100385.31;5074213;28;20200;-70
2022/10/27 00:42:26;;;;;;;18.93;10.10;;;;;;;16.40;63.64;100386.53;5074181;28;20219;-70
2022/10/27 00:44:53;;;;;;;14.93;9.87;;;;;;;16.45;63.06;100385.94;5074325;28;20249;-70
2022/10/27 00:47:24;;;;;;;15.87;10.30;;;;;;;16.46;63.16;100379.53;5074127;28;20200;-69
2022/10/27 00:49:57;;;;;;;16.70;11.57;;;;;;;16.48;62.98;100382.81;5074659;28;20188;-70
2022/10/27 00:52:29;;;;;;;19.30;10.53;;;;;;;16.52;63.43;100381.34;5074671;28;20245;-70
2022/10/27 00:55:01;;;;;;;19.53;11.30;;;;;;;16.54;63.53;100384.66;5073640;28;20237;-69
2022/10/27 00:57:31;;;;;;;25.40;12.00;;;;;;;16.43;62.61;100377.25;5074021;28;20250;-69
2022/10/27 00:59:59;;;;;;;20.03;11.73;;;;;;;16.35;61.98;100386.34;5073765;28;20195;-70
2022/10/27 01:02:26;;;;;;;16.73;11.33;;;;;;;16.33;62.10;100395.63;5073681;28;20215;-69
2022/10/27 01:04:57;;;;;;;13.07;11.00;;;;;;;16.24;62.16;100383.47;5073366;28;20199;-69
2022/10/27 01:07:24;;;;;;;18.73;11.93;;;;;;;16.19;62.41;100385.97;5073477;28;20180;-70
2022/10/27 01:09:51;;;;;;;18.40;11.67;;;;;;;16.00;63.01;100392.22;5072941;28;20246;-70
2022/10/27 01:12:18;;;;;;;17.40;10.40;;;;;;;15.98;62.98;100379.81;5073577;28;20227;-70
2022/10/27 01:14:46;;;;;;;15.40;10.90;;;;;;;15.95;63.56;100382.09;5073164;28;20196;-70
2022/10/27 01:17:24;;;;;;;17.23;10.43;;;;;;;15.92;63.14;100377.16;5073191;28;20237;-70
2022/10/27 01:20:27;;;;;;;16.87;10.60;;;;;;;15.85;63.91;100384.41;5073460;28;20176;-70
2022/10/27 01:22:58;;;;;;;25.10;10.73;;;;;;;15.80;63.87;100376.97;5073686;28;20316;-70
2022/10/27 01:25:52;;;;;;;13.23;9.57;;;;;;;15.88;63.90;100383.16;5073309;28;20245;-70
2022/10/27 01:28:46;;;;;;;17.23;10.20;;;;;;;15.98;63.79;100385.19;5071443;28;20244;-70
2022/10/27 01:31:20;;;;;;;11.10;9.80;;;;;;;16.02;63.79;100391.75;5053182;28;20193;-70
2022/10/27 01:33:50;;;;;;;16.07;9.90;;;;;;;16.06;63.48;100391.34;5053858;28;20242;-70
2022/10/27 01:36:24;;;;;;;10.60;9.60;;;;;;;16.11;63.07;100392.38;5067312;28;20196;-70
2022/10/27 01:38:59;;;;;;;12.50;10.17;;;;;;;16.07;63.62;100393.00;5072839;28;20640;-70
2022/10/27 01:41:30;;;;;;;11.40;9.10;;;;;;;16.13;63.60;100394.84;5072605;28;20204;-70
2022/10/27 01:44:04;;;;;;;16.83;9.50;;;;;;;16.25;62.84;100402.03;5073600;28;20192;-70
2022/10/27 01:46:33;;;;;;;11.83;9.23;;;;;;;16.33;62.75;100403.69;5072969;28;20192;-70
2022/10/27 01:49:03;;;;;;;13.53;8.93;;;;;;;16.39;62.05;100403.66;5072626;28;20265;-70
2022/10/27 01:51:30;;;;;;;11.03;9.93;;;;;;;16.45;62.11;100410.06;5072769;28;20207;-70
2022/10/27 01:53:57;;;;;;;11.37;9.13;;;;;;;16.48;61.55;100405.09;5072466;28;20626;-70
2022/10/27 01:56:58;;;;;;;12.43;9.10;;;;;;;16.52;61.35;100410.84;5072398;28;20196;-70
2022/10/27 01:59:51;;;;;;;15.30;8.57;;;;;;;16.54;61.35;100411.47;5066170;28;20242;-70
2022/10/27 02:02:28;;;;;;;11.23;8.10;;;;;;;16.54;60.91;100414.16;5072334;28;20276;-70
2022/10/27 02:05:03;;;;;;;13.30;7.90;;;;;;;16.47;61.58;100419.53;5073406;28;20251;-71
2022/10/27 02:07:38;;;;;;;11.07;7.47;;;;;;;16.30;61.39;100420.19;5072685;28;20187;-70
2022/10/27 02:10:10;;;;;;;9.20;8.30;;;;;;;16.11;61.24;100418.34;5072746;28;20188;-70
2022/10/27 02:12:38;;;;;;;13.50;8.67;;;;;;;15.88;62.20;100422.31;5072841;28;20292;-70
2022/10/27 02:15:13;;;;;;;13.50;9.10;;;;;;;15.81;63.37;100424.16;5072118;28;20226;-70
2022/10/27 02:17:43;;;;;;;12.00;9.17;;;;;;;15.83;62.77;100427.47;5072264;28;20720;-70
2022/10/27 02:20:16;;;;;;;9.57;8.60;;;;;;;15.85;63.22;100433.44;5073201;28;20249;-70
2022/10/27 02:22:46;;;;;;;11.60;8.70;;;;;;;15.86;64.50;100431.59;5071250;28;20640;-70
2022/10/27 02:25:13;;;;;;;11.87;8.33;;;;;;;15.83;63.99;100435.50;5072212;28;20752;-70
2022/10/27 02:27:44;;;;;;;17.57;9.30;;;;;;;15.84;64.74;100431.78;5072325;28;20248;-70
2022/10/27 02:30:11;;;;;;;9.70;8.27;;;;;;;15.88;64.26;100436.75;5072327;28;20192;-71
2022/10/27 02:32:38;;;;;;;11.33;8.13;;;;;;;15.86;64.30;100437.75;5071942;28;20663;-70
2022/10/27 02:35:10;;;;;;;11.60;9.03;;;;;;;15.92;64.09;100433.41;5071844;28;20238;-69
2022/10/27 02:37:40;;;;;;;18.73;8.43;;;;;;;15.99;63.46;100436.94;5071873;28;20188;-70
2022/10/27 02:40:08;;;;;;;12.37;8.60;;;;;;;16.06;63.01;100444.97;5071908;28;20184;-69
2022/10/27 02:42:35;;;;;;;10.27;8.73;;;;;;;16.09;62.47;100441.88;5072043;28;20304;-70
2022/10/27 02:45:02;;;;;;;12.43;9.10;;;;;;;16.12;62.20;100444.94;5071866;28;20187;-69
2022/10/27 02:47:29;;;;;;;11.93;8.50;;;;;;;16.01;62.53;100439.41;5072053;28;20258;-69
2022/10/27 02:49:55;;;;;;;13.23;7.93;;;;;;;15.88;63.04;100450.94;5072921;28;20229;-69
2022/10/27 02:52:23;;;;;;;10.47;8.33;;;;;;;15.77;63.35;100452.38;5071964;28;20195;-69
2022/10/27 02:54:50;;;;;;;10.67;8.33;;;;;;;15.79;63.23;100453.03;5071799;28;20824;-69
2022/10/27 02:57:18;;;;;;;9.57;8.43;;;;;;;15.71;63.79;100463.09;5072053;28;20199;-69
2022/10/27 02:59:45;;;;;;;15.33;8.63;;;;;;;15.63;63.51;100457.94;5071564;28;20191;-69
2022/10/27 03:02:12;;;;;;;10.00;8.50;;;;;;;15.61;63.75;100458.16;5071476;28;20219;-69
2022/10/27 03:04:38;;;;;;;11.33;8.93;;;;;;;15.61;64.19;100471.53;5071587;28;20256;-69
2022/10/27 03:07:05;;;;;;;11.17;8.73;;;;;;;15.60;63.99;100472.56;5071824;28;20241;-69
2022/10/27 03:09:33;;;;;;;10.17;9.20;;;;;;;15.61;64.47;100473.41;5071650;28;20196;-69
2022/10/27 03:12:00;;;;;;;19.40;9.30;;;;;;;15.60;64.60;100467.22;5071407;28;20476;-70
2022/10/27 03:14:27;;;;;;;9.70;8.73;;;;;;;15.58;64.40;100469.28;5071658;28;20549;-70
2022/10/27 03:16:53;;;;;;;12.53;9.37;;;;;;;15.60;64.67;100466.38;5071380;28;20196;-69
2022/10/27 03:19:20;;;;;;;12.80;9.20;;;;;;;15.61;64.33;100470.75;5071510;28;20256;-69
2022/10/27 03:21:47;;;;;;;10.90;9.37;;;;;;;15.54;64.56;100472.56;5071599;28;20238;-69
2022/10/27 03:24:13;;;;;;;14.60;9.10;;;;;;;15.50;64.36;100468.66;5071604;28;20200;-70
2022/10/27 03:26:42;;;;;;;14.20;8.87;;;;;;;15.38;65.13;100473.78;5071899;28;20196;-71
2022/10/27 03:29:08;;;;;;;15.20;8.90;;;;;;;15.37;66.06;100472.16;5063036;28;20244;-70
2022/10/27 03:31:35;;;;;;;14.33;8.93;;;;;;;15.25;65.33;100471.06;5051233;28;20197;-70
2022/10/27 03:34:02;;;;;;;16.10;9.40;;;;;;;15.26;65.16;100479.91;5053245;28;20250;-70
2022/10/27 03:36:28;;;;;;;21.33;8.83;;;;;;;15.17;65.90;100473.91;5071369;28;20281;-70
2022/10/27 03:38:55;;;;;;;13.13;8.17;;;;;;;15.16;65.17;100480.28;5075476;28;20257;-70
2022/10/27 03:41:22;;;;;;;14.10;9.20;;;;;;;15.04;66.07;100476.53;5075660;28;20624;-70
2022/10/27 03:43:50;;;;;;;11.60;8.67;;;;;;;15.06;66.18;100481.69;5075390;28;20224;-70
2022/10/27 03:46:16;;;;;;;9.27;8.47;;;;;;;15.08;65.71;100483.13;5075703;28;20188;-70
2022/10/27 03:48:43;;;;;;;32.50;10.07;;;;;;;15.12;66.10;100483.56;5074835;28;20192;-70
2022/10/27 03:51:10;;;;;;;15.43;8.43;;;;;;;15.13;65.89;100480.69;5074804;28;20196;-70
2022/10/27 03:53:36;;;;;;;11.63;8.30;;;;;;;15.15;65.08;100483.97;5074807;28;20200;-70
2022/10/27 03:56:03;;;;;;;16.60;8.60;;;;;;;15.19;65.40;100490.59;5075283;28;20192;-70
2022/10/27 03:58:30;;;;;;;17.53;8.87;;;;;;;15.19;64.90;100485.22;5074650;28;20699;-70
2022/10/27 04:01:02;;;;;;;13.37;8.93;;;;;;;15.17;65.23;100492.66;5074784;28;20253;-70
2022/10/27 04:03:28;;;;;;;17.43;8.90;;;;;;;15.19;66.22;100495.09;5074594;28;20208;-69
2022/10/27 04:05:55;;;;;;;18.93;9.13;;;;;;;15.30;65.70;100503.41;5074865;28;20571;-70
2022/10/27 04:08:22;;;;;;;17.13;8.17;;;;;;;15.36;65.34;100502.59;5074940;28;20192;-70
2022/10/27 04:10:48;;;;;;;14.07;8.70;;;;;;;15.38;65.41;100511.28;5074629;28;20191;-70
2022/10/27 04:13:15;;;;;;;18.43;8.30;;;;;;;15.48;64.84;100513.56;5074150;28;20234;-70
2022/10/27 04:15:42;;;;;;;15.67;8.00;;;;;;;15.57;64.20;100510.47;5075509;28;20242;-70
2022/10/27 04:18:11;;;;;;;34.30;9.67;;;;;;;15.57;64.52;100513.16;5074554;28;20192;-70
2022/10/27 04:20:37;;;;;;;41.57;10.47;;;;;;;15.58;64.33;100509.47;5075185;28;20188;-70
2022/10/27 04:23:04;;;;;;;23.73;8.63;;;;;;;15.53;64.92;100514.59;5074147;28;20269;-70
2022/10/27 04:25:31;;;;;;;24.67;9.07;;;;;;;15.57;64.82;100512.34;5074476;28;20196;-70
2022/10/27 04:28:01;;;;;;;23.77;8.37;;;;;;;15.62;64.37;100520.59;5074451;28;20199;-71
2022/10/27 04:30:28;;;;;;;26.20;8.37;;;;;;;15.62;63.95;100518.75;5074388;28;20279;-70
2022/10/27 04:32:55;;;;;;;24.63;8.00;;;;;;;15.66;64.05;100522.69;5073868;28;20195;-69
2022/10/27 04:35:23;;;;;;;25.60;7.43;;;;;;;15.62;64.45;100521.44;5074072;28;20253;-70
2022/10/27 04:37:49;;;;;;;26.10;8.60;;;;;;;15.62;64.61;100526.78;5073599;28;20195;-70
2022/10/27 04:40:16;;;;;;;24.00;8.97;;;;;;;15.59;64.45;100529.88;5073803;28;20662;-69
2022/10/27 04:42:45;;;;;;;24.43;8.07;;;;;;;15.59;64.10;100529.88;5073573;28;20220;-69
2022/10/27 04:45:11;;;;;;;27.77;8.53;;;;;;;15.62;64.10;100534.81;5073748;28;20228;-70
2022/10/27 04:47:38;;;;;;;13.70;7.90;;;;;;;15.67;64.30;100532.34;5074071;28;20188;-70
2022/10/27 04:50:05;;;;;;;16.03;8.40;;;;;;;15.65;63.69;100538.94;5073340;28;20250;-70
2022/10/27 04:52:33;;;;;;;17.20;6.70;;;;;;;15.62;64.20;100536.66;5073310;28;20686;-71
2022/10/27 04:55:00;;;;;;;20.17;6.97;;;;;;;15.59;63.77;100535.22;5073778;28;20246;-71
2022/10/27 04:57:27;;;;;;;17.37;6.63;;;;;;;15.52;64.03;100539.72;5073251;28;20656;-70
2022/10/27 04:59:53;;;;;;;37.20;7.10;;;;;;;15.49;63.22;100542.81;5074240;28;20196;-70
2022/10/27 05:02:20;;;;;;;20.07;6.07;;;;;;;15.33;63.53;100535.13;5073095;28;20216;-71
2022/10/27 05:04:47;;;;;;;15.73;5.10;;;;;;;15.35;64.08;100551.84;5073127;28;20251;-70
2022/10/27 05:07:13;;;;;;;18.50;5.20;;;;;;;15.35;63.23;100549.16;5074102;28;20611;-71
2022/10/27 05:09:41;;;;;;;24.77;6.20;;;;;;;15.44;64.38;100552.50;5073411;28;20271;-70
2022/10/27 05:12:08;;;;;;;18.40;6.10;;;;;;;15.53;63.27;100553.94;5062187;28;20228;-71
2022/10/27 05:14:35;;;;;;;21.00;6.50;;;;;;;15.54;64.17;100553.75;5053028;28;20211;-72
2022/10/27 05:17:01;;;;;;;34.90;7.00;;;;;;;15.54;63.61;100563.63;5070839;28;20200;-72
2022/10/27 05:19:28;;;;;;;27.37;6.47;;;;;;;15.51;62.53;100564.03;5072241;28;20200;-70
2022/10/27 05:21:55;;;;;;;14.23;6.33;;;;;;;15.40;63.49;100565.44;5072328;28;20199;-72
2022/10/27 05:24:22;;;;;;;42.00;7.37;;;;;;;15.32;63.27;100567.44;5072218;28;20310;-72
2022/10/27 05:26:50;;;;;;;16.40;5.93;;;;;;;15.27;63.83;100578.75;5072925;28;20225;-76
2022/10/27 05:29:16;;;;;;;24.97;6.27;;;;;;;15.26;64.14;100566.41;5063486;28;20246;-75
2022/10/27 05:31:43;;;;;;;29.97;7.37;;;;;;;15.35;63.88;100567.91;5052946;28;20680;-74
2022/10/27 05:34:10;;;;;;;17.53;6.30;;;;;;;15.37;64.44;100567.69;5053237;28;20258;-76
2022/10/27 05:36:36;;;;;;;20.07;6.07;;;;;;;15.55;63.81;100579.50;5070292;28;20196;-73
2022/10/27 05:39:03;;;;;;;27.67;6.83;;;;;;;15.75;63.75;100588.41;5072970;28;20192;-74
2022/10/27 05:41:30;;;;;;;14.80;5.73;;;;;;;15.70;62.39;100590.88;5072666;28;20200;-73
2022/10/27 05:43:58;;;;;;;22.90;6.00;;;;;;;15.60;63.02;100590.44;5072808;28;20219;-73
2022/10/27 05:46:25;;;;;;;40.60;7.23;;;;;;;15.47;63.36;100589.56;5072657;28;20249;-74
2022/10/27 05:48:51;;;;;;;11.43;5.07;;;;;;;15.40;63.68;100594.09;5072785;28;20196;-76
2022/10/27 05:51:18;;;;;;;14.73;5.47;;;;;;;15.32;63.31;100603.06;5072681;28;20225;-76
2022/10/27 05:53:48;;;;;;;20.73;6.00;;;;;;;15.35;63.75;100613.41;5072339;28;20264;-74
2022/10/27 05:56:15;;;;;;;16.53;6.27;;;;;;;15.39;63.74;100611.16;5072174;28;20192;-76
2022/10/27 05:58:42;;;;;;;19.53;5.70;;;;;;;15.40;63.59;100610.16;5072232;28;20200;-73
2022/10/27 06:01:10;;;;;;;16.97;5.80;;;;;;;15.32;63.66;100621.81;5061360;28;20242;-75
2022/10/27 06:03:36;;;;;;;27.23;6.83;;;;;;;15.39;63.43;100624.53;5052145;28;20687;-75
2022/10/27 06:06:04;;;;;;;23.40;6.83;;;;;;;15.43;63.31;100626.63;5052626;28;20200;-75
2022/10/27 06:08:31;;;;;;;20.27;5.60;;;;;;;15.55;62.91;100625.03;5052717;28;20262;-75
2022/10/27 06:10:57;;;;;;;20.60;5.90;;;;;;;15.63;62.79;100630.22;5071140;28;20236;-73
2022/10/27 06:13:24;;;;;;;38.07;8.30;;;;;;;15.67;62.48;100623.44;5071440;28;20196;-75
2022/10/27 06:15:51;;;;;;;60.37;8.53;;;;;;;15.77;62.35;100639.94;5060217;28;20923;-75
2022/10/27 06:18:19;;;;;;;44.27;6.80;;;;;;;16.11;64.79;100630.13;5059519;28;20196;-75
2022/10/27 06:20:46;;;;;;;9.57;4.70;;;;;;;16.40;61.82;100640.47;5062689;28;20749;-74
2022/10/27 06:23:12;;;;;;;24.23;6.17;;;;;;;16.75;60.44;100639.25;5057283;28;20212;-74
2022/10/27 06:25:39;;;;;;;18.73;5.37;;;;;;;17.04;58.20;100644.16;5061170;28;20192;-76
2022/10/27 06:28:07;;;;;;;19.50;6.10;;;;;;;17.07;58.37;100638.38;5057321;28;20799;-72
2022/10/27 06:30:34;;;;;;;21.93;6.17;;;;;;;17.17;57.92;100638.75;5057490;28;20196;-75
2022/10/27 06:33:00;;;;;;;62.13;9.77;;;;;;;17.17;57.90;100638.75;5044522;28;20232;-74
2022/10/27 06:35:28;;;;;;;13.60;5.23;;;;;;;17.26;57.37;100640.19;5053597;28;20223;-75
2022/10/27 06:37:55;;;;;;;18.17;4.90;;;;;;;17.20;57.45;100643.72;5059284;28;20262;-75
2022/10/27 06:40:22;;;;;;;36.20;5.23;;;;;;;17.19;57.10;100642.09;5054144;28;20255;-77
2022/10/27 06:42:49;;;;;;;16.13;4.70;;;;;;;17.23;57.46;100648.69;5057220;28;20231;-78
2022/10/27 06:45:20;;;;;;;20.20;5.83;;;;;;;17.27;57.24;100639.16;5057788;28;20279;-77
2022/10/27 06:47:56;;;;;;;16.33;5.20;;;;;;;17.32;57.18;100642.03;5057439;28;20181;-77
2022/10/27 06:50:22;;;;;;;31.57;7.00;;;;;;;17.19;57.47;100634.03;5050629;28;20191;-76
2022/10/27 06:52:51;;;;;;;22.13;5.97;;;;;;;17.28;58.17;100643.50;5059051;28;20202;-77
2022/10/27 06:55:17;;;;;;;13.27;5.90;;;;;;;17.34;57.73;100645.31;5059243;28;20224;-78
2022/10/27 06:57:44;;;;;;;20.80;6.23;;;;;;;17.50;57.29;100655.63;5057397;28;20749;-75
2022/10/27 07:00:12;;;;;;;17.40;6.73;;;;;;;17.50;57.13;100652.94;5056731;28;20188;-78
2022/10/27 07:02:39;;;;;;;21.87;6.70;;;;;;;17.67;57.18;100662.19;5054741;28;20264;-78
2022/10/27 07:05:07;;;;;;;17.10;5.43;;;;;;;17.84;57.24;100652.59;5047833;28;20684;-76
2022/10/27 07:07:35;;;;;;;8.87;5.43;;;;;;;18.05;56.37;100654.97;5054255;28;20633;-73
2022/10/27 07:10:05;;;;;;;11.07;5.40;;;;;;;18.26;56.31;100660.00;5070548;28;20195;-73
2022/10/27 07:12:32;;;;;;;27.77;6.80;;;;;;;18.57;55.43;100655.44;5076540;28;20639;-72
2022/10/27 07:14:58;;;;;;;14.37;5.10;;;;;;;18.85;54.31;100665.75;5074997;28;20631;-74
2022/10/27 07:17:25;;;;;;;16.57;4.53;;;;;;;18.97;54.12;100666.69;5075840;28;20230;-73
2022/10/27 07:19:52;;;;;;;9.87;4.67;;;;;;;19.08;53.83;100657.88;5066208;28;20243;-77
2022/10/27 07:22:19;;;;;;;20.77;5.03;;;;;;;19.25;52.87;100664.38;5063611;28;20196;-77
2022/10/27 07:24:45;;;;;;;12.80;4.90;;;;;;;19.14;53.27;100662.38;5059632;28;20334;-74
2022/10/27 07:27:13;;;;;;;24.20;5.63;;;;;;;19.13;53.30;100672.34;5064114;28;20241;-73
2022/10/27 07:29:40;;;;;;;18.07;4.67;;;;;;;19.14;53.25;100665.91;5062770;28;20738;-73
2022/10/27 07:32:07;;;;;;;11.23;5.50;;;;;;;19.24;52.53;100673.50;5054308;28;20266;-71
2022/10/27 07:34:33;;;;;;;10.33;5.10;;;;;;;19.03;53.53;100671.22;5056840;28;20684;-72
2022/10/27 07:37:00;;;;;;;22.67;6.23;;;;;;;18.94;54.01;100673.34;5073519;28;20194;-74
2022/10/27 07:39:27;;;;;;;16.33;5.13;;;;;;;19.00;54.06;100682.41;5072696;28;20199;-72
2022/10/27 07:41:53;;;;;;;18.77;6.40;;;;;;;19.03;53.56;100682.78;5073174;28;20742;-75
2022/10/27 07:44:22;;;;;;;19.90;5.77;;;;;;;18.98;53.44;100689.88;5072616;28;20212;-70
2022/10/27 07:46:48;;;;;;;21.97;5.93;;;;;;;18.94;54.08;100689.50;5066771;28;20202;-75
2022/10/27 07:49:15;;;;;;;16.67;5.67;;;;;;;19.05;54.12;100690.66;5062917;28;20264;-71
2022/10/27 07:51:41;;;;;;;15.83;5.33;;;;;;;19.17;53.60;100688.88;5065114;28;20199;-70
2022/10/27 07:54:08;;;;;;;26.80;5.93;;;;;;;19.28;53.06;100686.28;5062355;28;20252;-71
2022/10/27 07:56:36;;;;;;;54.00;7.27;;;;;;;19.37;53.33;100701.16;5069435;28;20246;-72
2022/10/27 07:59:02;;;;;;;28.03;7.27;;;;;;;19.44;52.84;100695.69;5074339;28;20659;-72
2022/10/27 08:01:30;;;;;;;23.53;5.87;;;;;;;19.48;53.03;100696.88;5065563;28;20652;-71
2022/10/27 08:03:57;;;;;;;20.93;6.30;;;;;;;19.56;53.02;100699.28;5061055;28;20216;-70
2022/10/27 08:06:24;;;;;;;12.17;6.30;;;;;;;19.57;52.63;100698.22;5066315;28;20256;-69
2022/10/27 08:08:51;;;;;;;22.20;5.10;;;;;;;19.42;53.37;100689.69;5073293;28;20192;-70
2022/10/27 08:11:17;;;;;;;23.73;6.37;;;;;;;19.46;53.14;100699.78;5055341;28;20261;-68
2022/10/27 08:13:44;;;;;;;14.97;6.40;;;;;;;19.43;53.54;100692.16;5054423;28;20196;-68
2022/10/27 08:16:11;;;;;;;14.57;6.07;;;;;;;19.33;53.69;100691.84;5054497;28;20625;-70
2022/10/27 08:18:39;;;;;;;17.73;6.20;;;;;;;19.39;54.10;100695.50;5054085;28;20248;-70
2022/10/27 08:21:06;;;;;;;48.17;7.87;;;;;;;19.56;53.74;100699.28;5053383;28;20231;-70
2022/10/27 08:23:32;;;;;;;71.03;10.10;;;;;;;19.72;53.51;100688.69;5062251;28;20568;-71
2022/10/27 08:25:59;;;;;;;37.47;7.17;;;;;;;19.97;52.16;100680.50;5068506;28;20200;-71
2022/10/27 08:28:26;;;;;;;55.17;7.33;;;;;;;20.19;51.18;100681.69;5071102;28;20192;-67
2022/10/27 08:30:53;;;;;;;15.07;5.83;;;;;;;20.35;51.53;100689.13;5071502;28;20758;-70
2022/10/27 08:33:22;;;;;;;33.60;6.63;;;;;;;20.52;50.66;100679.31;5072424;28;20200;-70
2022/10/27 08:35:50;;;;;;;26.53;6.50;;;;;;;20.82;50.01;100690.84;5064296;28;20196;-71
2022/10/27 08:38:18;;;;;;;8.67;5.33;;;;;;;20.97;48.51;100682.31;5053710;28;20657;-69
2022/10/27 08:41:00;;;;;;;20.83;5.57;;;;;;;21.11;48.40;100684.56;5053744;28;20193;-70
2022/10/27 08:43:44;;;;;;;30.30;8.03;;;;;;;21.23;48.75;100685.38;5053815;28;20208;-71
2022/10/27 08:46:17;;;;;;;34.17;7.67;;;;;;;21.45;48.11;100691.84;5060217;28;20180;-70
2022/10/27 08:48:45;;;;;;;35.97;7.40;;;;;;;21.53;47.92;100683.34;5074117;28;20268;-72
2022/10/27 08:51:18;;;;;;;10.77;5.33;;;;;;;21.64;47.33;100685.19;5071293;28;20257;-72
2022/10/27 08:53:51;;;;;;;36.53;6.53;;;;;;;21.68;47.64;100686.34;5073192;28;20260;-71
2022/10/27 08:56:20;;;;;;;11.20;6.40;;;;;;;21.70;47.24;100668.06;5070888;28;20188;-71
2022/10/27 08:58:48;;;;;;;30.73;17.10;;;;;;;22.05;53.67;100676.06;5074647;28;20795;-72
2022/10/27 09:01:25;;;;;;;20.33;9.30;;;;;;;22.58;50.52;100680.03;5089420;28;20187;-72
2022/10/27 09:04:05;;;;;;;16.23;10.13;;;;;;;22.95;47.97;100686.59;5053440;28;20224;-72
2022/10/27 09:06:38;;;;;;;11.40;6.37;;;;;;;23.17;45.21;100687.50;5054017;28;20189;-73
2022/10/27 09:09:17;;;;;;;20.13;5.93;;;;;;;23.33;44.06;100681.25;5061152;28;20180;-74
2022/10/27 09:11:54;;;;;;;9.63;4.90;;;;;;;23.52;43.00;100685.28;5072504;28;20238;-73
2022/10/27 09:14:44;;;;;;;12.67;4.53;;;;;;;23.51;41.31;100680.09;5074145;28;20186;-73
2022/10/27 09:17:15;;;;;;;10.57;4.60;;;;;;;23.54;41.95;100677.72;5073896;28;20190;-79
2022/10/27 09:19:45;;;;;;;11.27;3.97;;;;;;;23.66;41.57;100674.88;5073358;28;20180;-73
2022/10/27 09:22:17;;;;;;;10.97;5.13;;;;;;;23.88;41.75;100675.69;5073569;28;20190;-72
2022/10/27 09:24:52;;;;;;;9.30;4.27;;;;;;;24.16;40.60;100670.06;5070618;28;20213;-74
2022/10/27 09:27:19;;;;;;;11.90;4.60;;;;;;;24.29;40.03;100667.75;5049235;28;20190;-75
2022/10/27 09:29:47;;;;;;;23.50;5.30;;;;;;;24.44;38.64;100673.34;5062741;28;20566;-75
2022/10/27 09:32:18;;;;;;;5.53;4.40;;;;;;;24.78;39.37;100661.16;5071516;28;20201;-75
2022/10/27 09:34:51;;;;;;;9.90;4.10;;;;;;;24.99;38.32;100660.22;5080554;28;20252;-72
2022/10/27 09:37:20;;;;;;;15.77;5.03;;;;;;;25.25;37.16;100669.38;5080316;28;20248;-69
2022/10/27 09:39:48;;;;;;;4.67;4.00;;;;;;;25.43;36.70;100655.34;5093827;28;20267;-72
2022/10/27 09:42:15;;;;;;;10.43;4.17;;;;;;;25.66;37.04;100654.09;5090454;28;20252;-71
2022/10/27 09:44:54;;;;;;;9.80;3.93;;;;;;;25.75;35.72;100652.47;5092127;28;20215;-70
2022/10/27 09:47:21;;;;;;;8.07;4.30;;;;;;;25.31;36.08;100656.66;5073080;28;20183;-70
2022/10/27 09:49:49;;;;;;;3.63;3.33;;;;;;;25.23;36.62;100643.50;5062795;28;20265;-68
2022/10/27 09:52:22;;;;;;;3.60;3.20;;;;;;;24.72;37.12;100648.63;5053827;28;20200;-74
2022/10/27 09:54:53;;;;;;;11.20;4.47;;;;;;;24.41;38.01;100635.81;5052058;28;20200;-69
2022/10/27 09:57:25;;;;;;;6.63;3.77;;;;;;;24.33;37.63;100643.59;5050693;28;20250;-68
2022/10/27 09:59:57;;;;;;;7.50;3.60;;;;;;;24.36;37.99;100633.06;5050699;28;20192;-71
2022/10/27 10:02:28;;;;;;;20.60;4.10;;;;;;;24.60;38.00;100638.97;5049722;28;20246;-69
2022/10/27 10:04:57;;;;;;;7.70;3.87;;;;;;;24.78;37.91;100628.53;5050125;28;20216;-70
2022/10/27 10:07:34;;;;;;;4.37;3.40;;;;;;;25.00;37.80;100631.94;5049980;28;20192;-68
2022/10/27 10:10:02;;;;;;;9.90;3.90;;;;;;;25.20;36.95;100633.97;5065038;28;20647;-69
2022/10/27 10:12:29;;;;;;;10.50;3.97;;;;;;;25.34;36.33;100627.00;5072686;28;20565;-70
2022/10/27 10:15:18;;;;;;;7.73;3.60;;;;;;;25.01;36.63;100630.06;5072342;28;20191;-72
2022/10/27 10:17:53;;;;;;;10.50;6.27;;;;;;;24.99;36.91;100627.59;5073021;28;20659;-73
2022/10/27 10:20:40;;;;;;;7.10;3.40;;;;;;;24.86;37.15;100611.75;5073099;28;20186;-73
2022/10/27 10:23:19;;;;;;;7.67;3.80;;;;;;;24.81;37.31;100622.59;5072983;28;20273;-79
2022/10/27 10:25:48;;;;;;;7.47;3.77;;;;;;;24.78;38.41;100625.81;5070235;28;20271;-71
2022/10/27 10:28:22;;;;;;;9.43;4.07;;;;;;;24.82;39.06;100613.34;5051875;28;20239;-68
2022/10/27 10:30:51;;;;;;;6.40;3.50;;;;;;;25.03;38.57;100612.38;5072087;28;20234;-65
2022/10/27 10:33:19;;;;;;;7.40;3.40;;;;;;;25.22;36.31;100614.66;5071937;28;20203;-69
2022/10/27 10:35:47;;;;;;;29.97;5.93;;;;;;;25.29;36.22;100615.28;5072591;28;20191;-70
2022/10/27 10:38:40;;;;;;;20.40;4.43;;;;;;;25.49;35.86;100613.47;5072293;28;20199;-68
2022/10/27 10:41:11;;;;;;;12.77;4.40;;;;;;;25.40;36.00;100617.81;5049257;28;20668;-69
2022/10/27 10:43:38;;;;;;;8.60;4.17;;;;;;;25.35;36.03;100608.78;5050620;28;20279;-69
2022/10/27 10:46:06;;;;;;;3.73;3.33;;;;;;;25.47;35.74;100612.13;5057323;28;20196;-69
2022/10/27 10:48:39;;;;;;;8.37;3.40;;;;;;;25.66;35.46;100607.81;5062982;28;20215;-69
2022/10/27 10:51:07;;;;;;;9.17;3.90;;;;;;;25.54;35.88;100604.50;5061823;28;20263;-69
2022/10/27 10:53:41;;;;;;;9.60;4.20;;;;;;;25.51;36.03;100603.13;5061422;28;20188;-68
2022/10/27 10:56:23;;;;;;;98.20;10.00;;;;;;;25.38;35.67;100602.78;5052103;28;20201;-68
2022/10/27 10:59:02;;;;;;;14.10;4.87;;;;;;;25.21;36.05;100570.34;5051998;28;20189;-67
2022/10/27 11:01:40;;;;;;;10.10;3.73;;;;;;;25.38;35.97;100600.06;5051947;28;20189;-68
2022/10/27 11:04:09;;;;;;;3.53;3.23;;;;;;;25.39;35.77;100605.25;5052950;28;20262;-69
2022/10/27 11:06:36;;;;;;;5.50;4.10;;;;;;;25.22;35.85;100592.91;5060469;28;20249;-69
2022/10/27 11:09:05;;;;;;;6.53;3.90;;;;;;;24.99;36.54;100589.53;5060023;28;20754;-68
2022/10/27 11:11:36;;;;;;;7.57;3.57;;;;;;;25.11;36.45;100591.22;5058594;28;20223;-69
2022/10/27 11:14:10;;;;;;;6.33;3.30;;;;;;;25.26;36.58;100588.56;5051779;28;20606;-69
2022/10/27 11:16:39;;;;;;;6.90;3.33;;;;;;;25.25;36.45;100576.06;5051290;28;20672;-69
2022/10/27 11:19:09;;;;;;;3.97;3.63;;;;;;;25.15;36.13;100571.38;5051024;28;20257;-70
2022/10/27 11:21:40;;;;;;;7.20;3.90;;;;;;;25.17;36.66;100582.00;5051885;28;20203;-69
2022/10/27 11:24:16;;;;;;;37.97;5.53;;;;;;;25.26;36.15;100573.06;5062034;28;20247;-69
2022/10/27 11:26:53;;;;;;;6.63;3.27;;;;;;;25.28;36.18;100570.94;5065808;28;20200;-69